sensor_id;sensor_type;location;lat;lon;timestamp;temperature;humidity
75380;HTU21D;65641;44.714;37.756;2023-06-14T00:01:01;22.82;60.65
75380;HTU21D;65641;44.714;37.756;2023-06-14T00:02:06;22.83;60.63
75380;HTU21D;65641;44.714;37.756;2023-06-14T00:03:12;22.82;60.57
75380;HTU21D;65641;44.714;37.756;2023-06-14T00:04:21;22.81;60.63
75380;HTU21D;65641;44.714;37.756;2023-06-14T00:05:28;22.82;60.53
75380;HTU21D;65641;44.714;37.756;2023-06-14T00:06:33;22.81;60.59
75380;HTU21D;65641;44.714;37.756;2023-06-14T00:07:41;22.80;60.54
75380;HTU21D;65641;44.714;37.756;2023-06-14T00:08:51;22.81;60.53
75380;HTU21D;65641;44.714;37.756;2023-06-14T00:09:54;22.79;60.50
75380;HTU21D;65641;44.714;37.756;2023-06-14T00:11:01;22.79;60.54
75380;HTU21D;65641;44.714;37.756;2023-06-14T00:12:04;22.79;60.51
75380;HTU21D;65641;44.714;37.756;2023-06-14T00:13:12;22.78;60.55
75380;HTU21D;65641;44.714;37.756;2023-06-14T00:14:16;22.76;60.52
75380;HTU21D;65641;44.714;37.756;2023-06-14T00:15:22;22.76;60.54
75380;HTU21D;65641;44.714;37.756;2023-06-14T00:16:45;22.78;60.60
75380;HTU21D;65641;44.714;37.756;2023-06-14T00:17:50;22.76;60.64
75380;HTU21D;65641;44.714;37.756;2023-06-14T00:18:54;22.73;60.61
75380;HTU21D;65641;44.714;37.756;2023-06-14T00:19:58;22.73;60.62
75380;HTU21D;65641;44.714;37.756;2023-06-14T00:21:02;22.73;60.61
75380;HTU21D;65641;44.714;37.756;2023-06-14T00:22:07;22.72;60.57
75380;HTU21D;65641;44.714;37.756;2023-06-14T00:23:10;22.71;60.60
75380;HTU21D;65641;44.714;37.756;2023-06-14T00:24:14;22.71;60.49
75380;HTU21D;65641;44.714;37.756;2023-06-14T00:25:19;22.70;60.57
75380;HTU21D;65641;44.714;37.756;2023-06-14T00:26:34;22.70;60.56
75380;HTU21D;65641;44.714;37.756;2023-06-14T00:27:38;22.69;60.56
75380;HTU21D;65641;44.714;37.756;2023-06-14T00:28:42;22.68;60.63
75380;HTU21D;65641;44.714;37.756;2023-06-14T00:29:45;22.69;60.62
75380;HTU21D;65641;44.714;37.756;2023-06-14T00:30:49;22.66;60.66
75380;HTU21D;65641;44.714;37.756;2023-06-14T00:31:52;22.66;60.57
75380;HTU21D;65641;44.714;37.756;2023-06-14T00:32:56;22.64;60.65
75380;HTU21D;65641;44.714;37.756;2023-06-14T00:34:01;22.64;60.68
75380;HTU21D;65641;44.714;37.756;2023-06-14T00:35:05;22.63;60.76
75380;HTU21D;65641;44.714;37.756;2023-06-14T00:36:09;22.63;60.72
75380;HTU21D;65641;44.714;37.756;2023-06-14T00:37:13;22.62;60.67
75380;HTU21D;65641;44.714;37.756;2023-06-14T00:38:18;22.60;60.76
75380;HTU21D;65641;44.714;37.756;2023-06-14T00:39:21;22.61;60.69
75380;HTU21D;65641;44.714;37.756;2023-06-14T00:40:25;22.57;60.78
75380;HTU21D;65641;44.714;37.756;2023-06-14T00:41:28;22.56;60.76
75380;HTU21D;65641;44.714;37.756;2023-06-14T00:42:34;22.57;60.80
75380;HTU21D;65641;44.714;37.756;2023-06-14T00:43:37;22.55;60.76
75380;HTU21D;65641;44.714;37.756;2023-06-14T00:44:41;22.55;60.78
75380;HTU21D;65641;44.714;37.756;2023-06-14T00:45:44;22.53;60.89
75380;HTU21D;65641;44.714;37.756;2023-06-14T00:46:49;22.51;60.93
75380;HTU21D;65641;44.714;37.756;2023-06-14T00:47:52;22.50;60.88
75380;HTU21D;65641;44.714;37.756;2023-06-14T00:49:00;22.50;60.93
75380;HTU21D;65641;44.714;37.756;2023-06-14T00:50:07;22.49;60.93
75380;HTU21D;65641;44.714;37.756;2023-06-14T00:51:10;22.49;60.91
75380;HTU21D;65641;44.714;37.756;2023-06-14T00:52:15;22.47;60.89
75380;HTU21D;65641;44.714;37.756;2023-06-14T00:53:19;22.48;60.88
75380;HTU21D;65641;44.714;37.756;2023-06-14T00:54:26;22.47;60.92
75380;HTU21D;65641;44.714;37.756;2023-06-14T00:55:30;22.47;60.96
75380;HTU21D;65641;44.714;37.756;2023-06-14T00:56:36;22.44;60.90
75380;HTU21D;65641;44.714;37.756;2023-06-14T00:57:39;22.44;60.91
75380;HTU21D;65641;44.714;37.756;2023-06-14T00:58:43;22.43;61.00
75380;HTU21D;65641;44.714;37.756;2023-06-14T00:59:48;22.43;60.99
75380;HTU21D;65641;44.714;37.756;2023-06-14T01:00:52;22.41;60.93
75380;HTU21D;65641;44.714;37.756;2023-06-14T01:01:55;22.41;60.94
75380;HTU21D;65641;44.714;37.756;2023-06-14T01:02:59;22.41;60.93
75380;HTU21D;65641;44.714;37.756;2023-06-14T01:04:03;22.41;60.94
75380;HTU21D;65641;44.714;37.756;2023-06-14T01:05:08;22.42;60.92
75380;HTU21D;65641;44.714;37.756;2023-06-14T01:06:28;22.40;60.92
75380;HTU21D;65641;44.714;37.756;2023-06-14T01:10:02;22.38;61.02
75380;HTU21D;65641;44.714;37.756;2023-06-14T01:10:53;22.36;61.04
75380;HTU21D;65641;44.714;37.756;2023-06-14T01:12:18;22.36;61.05
75380;HTU21D;65641;44.714;37.756;2023-06-14T01:13:29;22.35;61.12
75380;HTU21D;65641;44.714;37.756;2023-06-14T01:14:36;22.35;60.98
75380;HTU21D;65641;44.714;37.756;2023-06-14T01:15:41;22.35;61.07
75380;HTU21D;65641;44.714;37.756;2023-06-14T01:16:46;22.35;61.09
75380;HTU21D;65641;44.714;37.756;2023-06-14T01:17:51;22.34;61.02
75380;HTU21D;65641;44.714;37.756;2023-06-14T01:18:57;22.34;61.10
75380;HTU21D;65641;44.714;37.756;2023-06-14T01:20:02;22.34;61.04
75380;HTU21D;65641;44.714;37.756;2023-06-14T01:21:23;22.34;61.07
75380;HTU21D;65641;44.714;37.756;2023-06-14T01:22:28;22.32;61.01
75380;HTU21D;65641;44.714;37.756;2023-06-14T01:23:32;22.32;61.12
75380;HTU21D;65641;44.714;37.756;2023-06-14T01:24:36;22.31;61.07
75380;HTU21D;65641;44.714;37.756;2023-06-14T01:25:39;22.32;61.12
75380;HTU21D;65641;44.714;37.756;2023-06-14T01:26:47;22.29;61.09
75380;HTU21D;65641;44.714;37.756;2023-06-14T01:28:02;22.31;61.07
75380;HTU21D;65641;44.714;37.756;2023-06-14T01:29:07;22.31;61.07
75380;HTU21D;65641;44.714;37.756;2023-06-14T01:30:11;22.32;61.05
75380;HTU21D;65641;44.714;37.756;2023-06-14T01:31:19;22.31;61.04
75380;HTU21D;65641;44.714;37.756;2023-06-14T01:32:27;22.32;60.99
75380;HTU21D;65641;44.714;37.756;2023-06-14T01:33:32;22.31;61.02
75380;HTU21D;65641;44.714;37.756;2023-06-14T01:34:36;22.31;61.05
75380;HTU21D;65641;44.714;37.756;2023-06-14T01:35:44;22.32;60.96
75380;HTU21D;65641;44.714;37.756;2023-06-14T01:36:49;22.32;60.99
75380;HTU21D;65641;44.714;37.756;2023-06-14T01:37:54;22.34;60.93
75380;HTU21D;65641;44.714;37.756;2023-06-14T01:38:59;22.33;60.93
75380;HTU21D;65641;44.714;37.756;2023-06-14T01:40:06;22.33;60.95
75380;HTU21D;65641;44.714;37.756;2023-06-14T01:41:11;22.34;60.96
75380;HTU21D;65641;44.714;37.756;2023-06-14T01:42:15;22.34;60.92
75380;HTU21D;65641;44.714;37.756;2023-06-14T01:43:19;22.34;60.86
75380;HTU21D;65641;44.714;37.756;2023-06-14T01:44:23;22.35;60.82
75380;HTU21D;65641;44.714;37.756;2023-06-14T01:45:29;22.35;60.86
75380;HTU21D;65641;44.714;37.756;2023-06-14T01:46:32;22.36;60.83
75380;HTU21D;65641;44.714;37.756;2023-06-14T01:47:36;22.36;60.86
75380;HTU21D;65641;44.714;37.756;2023-06-14T01:48:40;22.38;60.73
75380;HTU21D;65641;44.714;37.756;2023-06-14T01:49:46;22.37;60.78
75380;HTU21D;65641;44.714;37.756;2023-06-14T01:50:50;22.38;60.74
75380;HTU21D;65641;44.714;37.756;2023-06-14T01:51:53;22.38;60.72
75380;HTU21D;65641;44.714;37.756;2023-06-14T01:52:57;22.39;60.70
75380;HTU21D;65641;44.714;37.756;2023-06-14T01:54:01;22.38;60.59
75380;HTU21D;65641;44.714;37.756;2023-06-14T01:55:05;22.40;60.66
75380;HTU21D;65641;44.714;37.756;2023-06-14T01:56:09;22.39;60.72
75380;HTU21D;65641;44.714;37.756;2023-06-14T01:57:12;22.39;60.70
75380;HTU21D;65641;44.714;37.756;2023-06-14T01:58:16;22.40;60.63
75380;HTU21D;65641;44.714;37.756;2023-06-14T01:59:20;22.40;60.61
75380;HTU21D;65641;44.714;37.756;2023-06-14T02:00:23;22.41;60.59
75380;HTU21D;65641;44.714;37.756;2023-06-14T02:01:28;22.41;60.59
75380;HTU21D;65641;44.714;37.756;2023-06-14T02:02:31;22.42;60.59
75380;HTU21D;65641;44.714;37.756;2023-06-14T02:03:35;22.42;60.58
75380;HTU21D;65641;44.714;37.756;2023-06-14T02:04:41;22.42;60.55
75380;HTU21D;65641;44.714;37.756;2023-06-14T02:05:45;22.43;60.56
75380;HTU21D;65641;44.714;37.756;2023-06-14T02:06:48;22.43;60.49
75380;HTU21D;65641;44.714;37.756;2023-06-14T02:07:54;22.44;60.50
75380;HTU21D;65641;44.714;37.756;2023-06-14T02:08:58;22.43;60.54
75380;HTU21D;65641;44.714;37.756;2023-06-14T02:10:04;22.42;60.47
75380;HTU21D;65641;44.714;37.756;2023-06-14T02:11:08;22.42;60.51
75380;HTU21D;65641;44.714;37.756;2023-06-14T02:12:12;22.44;60.46
75380;HTU21D;65641;44.714;37.756;2023-06-14T02:13:15;22.43;60.44
75380;HTU21D;65641;44.714;37.756;2023-06-14T02:14:20;22.41;60.41
75380;HTU21D;65641;44.714;37.756;2023-06-14T02:15:24;22.42;60.48
75380;HTU21D;65641;44.714;37.756;2023-06-14T02:16:30;22.43;60.49
75380;HTU21D;65641;44.714;37.756;2023-06-14T02:17:35;22.41;60.41
75380;HTU21D;65641;44.714;37.756;2023-06-14T02:18:42;22.41;60.47
75380;HTU21D;65641;44.714;37.756;2023-06-14T02:19:45;22.42;60.48
75380;HTU21D;65641;44.714;37.756;2023-06-14T02:20:49;22.42;60.49
75380;HTU21D;65641;44.714;37.756;2023-06-14T02:21:53;22.43;60.47
75380;HTU21D;65641;44.714;37.756;2023-06-14T02:22:57;22.44;60.54
75380;HTU21D;65641;44.714;37.756;2023-06-14T02:24:00;22.43;60.47
75380;HTU21D;65641;44.714;37.756;2023-06-14T02:25:05;22.44;60.44
75380;HTU21D;65641;44.714;37.756;2023-06-14T02:26:09;22.44;60.38
75380;HTU21D;65641;44.714;37.756;2023-06-14T02:27:13;22.44;60.40
75380;HTU21D;65641;44.714;37.756;2023-06-14T02:28:18;22.47;60.44
75380;HTU21D;65641;44.714;37.756;2023-06-14T02:29:21;22.48;60.40
75380;HTU21D;65641;44.714;37.756;2023-06-14T02:30:25;22.47;60.41
75380;HTU21D;65641;44.714;37.756;2023-06-14T02:31:32;22.49;60.39
75380;HTU21D;65641;44.714;37.756;2023-06-14T02:32:36;22.49;60.40
75380;HTU21D;65641;44.714;37.756;2023-06-14T02:33:40;22.50;60.31
75380;HTU21D;65641;44.714;37.756;2023-06-14T02:34:43;22.51;60.28
75380;HTU21D;65641;44.714;37.756;2023-06-14T02:35:50;22.53;60.26
75380;HTU21D;65641;44.714;37.756;2023-06-14T02:36:53;22.52;60.20
75380;HTU21D;65641;44.714;37.756;2023-06-14T02:37:58;22.54;60.19
75380;HTU21D;65641;44.714;37.756;2023-06-14T02:39:01;22.56;60.18
75380;HTU21D;65641;44.714;37.756;2023-06-14T02:40:06;22.57;60.10
75380;HTU21D;65641;44.714;37.756;2023-06-14T02:41:10;22.58;60.09
75380;HTU21D;65641;44.714;37.756;2023-06-14T02:42:13;22.58;60.05
75380;HTU21D;65641;44.714;37.756;2023-06-14T02:43:17;22.61;60.03
75380;HTU21D;65641;44.714;37.756;2023-06-14T02:44:24;22.61;60.04
75380;HTU21D;65641;44.714;37.756;2023-06-14T02:45:29;22.62;59.98
75380;HTU21D;65641;44.714;37.756;2023-06-14T02:46:33;22.63;59.96
75380;HTU21D;65641;44.714;37.756;2023-06-14T02:47:36;22.64;59.88
75380;HTU21D;65641;44.714;37.756;2023-06-14T02:48:40;22.67;59.88
75380;HTU21D;65641;44.714;37.756;2023-06-14T02:49:45;22.68;59.83
75380;HTU21D;65641;44.714;37.756;2023-06-14T02:50:51;22.70;59.84
75380;HTU21D;65641;44.714;37.756;2023-06-14T02:51:55;22.71;59.77
75380;HTU21D;65641;44.714;37.756;2023-06-14T02:52:59;22.73;59.68
75380;HTU21D;65641;44.714;37.756;2023-06-14T02:54:02;22.77;59.54
75380;HTU21D;65641;44.714;37.756;2023-06-14T02:55:06;22.80;59.49
75380;HTU21D;65641;44.714;37.756;2023-06-14T02:56:11;22.82;59.43
75380;HTU21D;65641;44.714;37.756;2023-06-14T02:57:16;22.84;59.36
75380;HTU21D;65641;44.714;37.756;2023-06-14T02:58:19;22.84;59.28
75380;HTU21D;65641;44.714;37.756;2023-06-14T02:59:23;22.87;59.24
75380;HTU21D;65641;44.714;37.756;2023-06-14T03:00:30;22.91;59.16
75380;HTU21D;65641;44.714;37.756;2023-06-14T03:01:33;22.94;59.08
75380;HTU21D;65641;44.714;37.756;2023-06-14T03:02:41;22.98;58.99
75380;HTU21D;65641;44.714;37.756;2023-06-14T03:03:47;22.99;58.90
75380;HTU21D;65641;44.714;37.756;2023-06-14T03:04:51;23.03;58.78
75380;HTU21D;65641;44.714;37.756;2023-06-14T03:05:55;23.06;58.74
75380;HTU21D;65641;44.714;37.756;2023-06-14T03:07:03;23.09;58.64
75380;HTU21D;65641;44.714;37.756;2023-06-14T03:08:15;23.12;58.54
75380;HTU21D;65641;44.714;37.756;2023-06-14T03:09:26;23.15;58.50
75380;HTU21D;65641;44.714;37.756;2023-06-14T03:10:31;23.17;58.47
75380;HTU21D;65641;44.714;37.756;2023-06-14T03:11:36;23.21;58.31
75380;HTU21D;65641;44.714;37.756;2023-06-14T03:12:40;23.26;58.22
75380;HTU21D;65641;44.714;37.756;2023-06-14T03:13:45;23.29;58.12
75380;HTU21D;65641;44.714;37.756;2023-06-14T03:14:50;23.32;58.07
75380;HTU21D;65641;44.714;37.756;2023-06-14T03:15:57;23.37;57.97
75380;HTU21D;65641;44.714;37.756;2023-06-14T03:17:01;23.39;57.88
75380;HTU21D;65641;44.714;37.756;2023-06-14T03:18:05;23.41;57.82
75380;HTU21D;65641;44.714;37.756;2023-06-14T03:19:11;23.45;57.75
75380;HTU21D;65641;44.714;37.756;2023-06-14T03:20:16;23.46;57.66
75380;HTU21D;65641;44.714;37.756;2023-06-14T03:21:22;23.51;57.59
75380;HTU21D;65641;44.714;37.756;2023-06-14T03:22:26;23.54;57.58
75380;HTU21D;65641;44.714;37.756;2023-06-14T03:23:30;23.55;57.51
75380;HTU21D;65641;44.714;37.756;2023-06-14T03:24:34;23.60;57.43
75380;HTU21D;65641;44.714;37.756;2023-06-14T03:25:45;23.64;57.31
75380;HTU21D;65641;44.714;37.756;2023-06-14T03:26:49;23.66;57.23
75380;HTU21D;65641;44.714;37.756;2023-06-14T03:27:53;23.70;57.15
75380;HTU21D;65641;44.714;37.756;2023-06-14T03:28:56;23.75;57.03
75380;HTU21D;65641;44.714;37.756;2023-06-14T03:30:00;23.80;56.90
75380;HTU21D;65641;44.714;37.756;2023-06-14T03:31:08;23.82;56.84
75380;HTU21D;65641;44.714;37.756;2023-06-14T03:32:12;23.86;56.74
75380;HTU21D;65641;44.714;37.756;2023-06-14T03:33:17;23.88;56.73
75380;HTU21D;65641;44.714;37.756;2023-06-14T03:34:21;23.89;56.66
75380;HTU21D;65641;44.714;37.756;2023-06-14T03:35:25;23.91;56.64
75380;HTU21D;65641;44.714;37.756;2023-06-14T03:36:28;23.95;56.60
75380;HTU21D;65641;44.714;37.756;2023-06-14T03:37:31;23.97;56.57
75380;HTU21D;65641;44.714;37.756;2023-06-14T03:38:36;24.02;56.41
75380;HTU21D;65641;44.714;37.756;2023-06-14T03:39:40;24.08;56.33
75380;HTU21D;65641;44.714;37.756;2023-06-14T03:40:54;24.15;56.08
75380;HTU21D;65641;44.714;37.756;2023-06-14T03:41:58;24.24;55.89
75380;HTU21D;65641;44.714;37.756;2023-06-14T03:43:01;24.34;55.65
75380;HTU21D;65641;44.714;37.756;2023-06-14T03:44:05;24.41;55.47
75380;HTU21D;65641;44.714;37.756;2023-06-14T03:45:09;24.46;55.29
75380;HTU21D;65641;44.714;37.756;2023-06-14T03:46:12;24.50;55.26
75380;HTU21D;65641;44.714;37.756;2023-06-14T03:47:16;24.50;55.18
75380;HTU21D;65641;44.714;37.756;2023-06-14T03:48:20;24.50;55.20
75380;HTU21D;65641;44.714;37.756;2023-06-14T03:49:23;24.54;55.20
75380;HTU21D;65641;44.714;37.756;2023-06-14T03:50:27;24.53;55.26
75380;HTU21D;65641;44.714;37.756;2023-06-14T03:51:31;24.51;55.29
75380;HTU21D;65641;44.714;37.756;2023-06-14T03:52:34;24.51;55.33
75380;HTU21D;65641;44.714;37.756;2023-06-14T03:53:38;24.51;55.33
75380;HTU21D;65641;44.714;37.756;2023-06-14T03:55:02;24.51;55.36
75380;HTU21D;65641;44.714;37.756;2023-06-14T03:56:08;24.54;55.37
75380;HTU21D;65641;44.714;37.756;2023-06-14T03:57:18;24.57;55.31
75380;HTU21D;65641;44.714;37.756;2023-06-14T03:58:24;24.58;55.33
75380;HTU21D;65641;44.714;37.756;2023-06-14T03:59:27;24.58;55.39
75380;HTU21D;65641;44.714;37.756;2023-06-14T04:00:31;24.60;55.35
75380;HTU21D;65641;44.714;37.756;2023-06-14T04:01:36;24.63;55.28
75380;HTU21D;65641;44.714;37.756;2023-06-14T04:02:40;24.64;55.26
75380;HTU21D;65641;44.714;37.756;2023-06-14T04:03:45;24.66;55.21
75380;HTU21D;65641;44.714;37.756;2023-06-14T04:04:49;24.71;55.11
75380;HTU21D;65641;44.714;37.756;2023-06-14T04:05:54;24.74;55.05
75380;HTU21D;65641;44.714;37.756;2023-06-14T04:07:00;24.76;55.02
75380;HTU21D;65641;44.714;37.756;2023-06-14T04:08:04;24.75;55.03
75380;HTU21D;65641;44.714;37.756;2023-06-14T04:09:12;24.75;55.07
75380;HTU21D;65641;44.714;37.756;2023-06-14T04:10:16;24.73;55.10
75380;HTU21D;65641;44.714;37.756;2023-06-14T04:11:21;24.74;55.15
75380;HTU21D;65641;44.714;37.756;2023-06-14T04:12:24;24.75;55.12
75380;HTU21D;65641;44.714;37.756;2023-06-14T04:13:28;24.79;55.00
75380;HTU21D;65641;44.714;37.756;2023-06-14T04:14:31;24.85;54.92
75380;HTU21D;65641;44.714;37.756;2023-06-14T04:15:36;24.92;54.77
75380;HTU21D;65641;44.714;37.756;2023-06-14T04:16:40;24.98;54.60
75380;HTU21D;65641;44.714;37.756;2023-06-14T04:17:44;25.04;54.43
75380;HTU21D;65641;44.714;37.756;2023-06-14T04:18:47;25.08;54.36
75380;HTU21D;65641;44.714;37.756;2023-06-14T04:19:54;25.09;54.27
75380;HTU21D;65641;44.714;37.756;2023-06-14T04:20:59;25.12;54.22
75380;HTU21D;65641;44.714;37.756;2023-06-14T04:22:05;25.13;54.20
75380;HTU21D;65641;44.714;37.756;2023-06-14T04:23:17;25.12;54.29
75380;HTU21D;65641;44.714;37.756;2023-06-14T04:24:22;25.12;54.36
75380;HTU21D;65641;44.714;37.756;2023-06-14T04:25:26;25.09;54.36
75380;HTU21D;65641;44.714;37.756;2023-06-14T04:26:31;25.10;54.39
75380;HTU21D;65641;44.714;37.756;2023-06-14T04:27:37;25.14;54.34
75380;HTU21D;65641;44.714;37.756;2023-06-14T04:28:41;25.15;54.32
75380;HTU21D;65641;44.714;37.756;2023-06-14T04:29:46;25.14;54.36
75380;HTU21D;65641;44.714;37.756;2023-06-14T04:30:52;25.13;54.40
75380;HTU21D;65641;44.714;37.756;2023-06-14T04:31:57;25.06;54.51
75380;HTU21D;65641;44.714;37.756;2023-06-14T04:33:02;25.04;54.66
75380;HTU21D;65641;44.714;37.756;2023-06-14T04:34:09;25.00;54.83
75380;HTU21D;65641;44.714;37.756;2023-06-14T04:35:26;24.97;54.94
75380;HTU21D;65641;44.714;37.756;2023-06-14T04:36:33;24.95;54.98
75380;HTU21D;65641;44.714;37.756;2023-06-14T04:37:45;24.94;55.07
75380;HTU21D;65641;44.714;37.756;2023-06-14T04:38:48;24.93;55.06
75380;HTU21D;65641;44.714;37.756;2023-06-14T04:39:53;24.94;55.07
75380;HTU21D;65641;44.714;37.756;2023-06-14T04:40:56;24.98;55.04
75380;HTU21D;65641;44.714;37.756;2023-06-14T04:42:00;25.00;54.99
75380;HTU21D;65641;44.714;37.756;2023-06-14T04:43:09;25.01;54.98
75380;HTU21D;65641;44.714;37.756;2023-06-14T04:44:17;25.03;54.99
75380;HTU21D;65641;44.714;37.756;2023-06-14T04:45:23;25.04;54.93
75380;HTU21D;65641;44.714;37.756;2023-06-14T04:46:28;25.04;54.92
75380;HTU21D;65641;44.714;37.756;2023-06-14T04:47:32;25.05;54.87
75380;HTU21D;65641;44.714;37.756;2023-06-14T04:48:36;25.07;54.86
75380;HTU21D;65641;44.714;37.756;2023-06-14T04:49:40;25.09;54.79
75380;HTU21D;65641;44.714;37.756;2023-06-14T04:50:44;25.13;54.71
75380;HTU21D;65641;44.714;37.756;2023-06-14T04:51:48;25.19;54.58
75380;HTU21D;65641;44.714;37.756;2023-06-14T04:53:02;25.30;54.33
75380;HTU21D;65641;44.714;37.756;2023-06-14T04:54:06;25.38;54.09
75380;HTU21D;65641;44.714;37.756;2023-06-14T04:55:13;25.50;53.81
75380;HTU21D;65641;44.714;37.756;2023-06-14T04:56:17;25.63;53.46
75380;HTU21D;65641;44.714;37.756;2023-06-14T04:57:21;25.74;53.19
75380;HTU21D;65641;44.714;37.756;2023-06-14T04:58:27;25.82;52.96
75380;HTU21D;65641;44.714;37.756;2023-06-14T04:59:31;25.92;52.75
75380;HTU21D;65641;44.714;37.756;2023-06-14T05:00:38;26.03;52.44
75380;HTU21D;65641;44.714;37.756;2023-06-14T05:01:42;26.13;52.21
75380;HTU21D;65641;44.714;37.756;2023-06-14T05:02:50;26.27;51.87
75380;HTU21D;65641;44.714;37.756;2023-06-14T05:03:57;26.41;51.50
75380;HTU21D;65641;44.714;37.756;2023-06-14T05:05:01;26.52;51.25
75380;HTU21D;65641;44.714;37.756;2023-06-14T05:06:07;26.61;51.07
75380;HTU21D;65641;44.714;37.756;2023-06-14T05:07:10;26.65;50.95
75380;HTU21D;65641;44.714;37.756;2023-06-14T05:08:14;26.71;50.86
75380;HTU21D;65641;44.714;37.756;2023-06-14T05:09:18;26.77;50.73
75380;HTU21D;65641;44.714;37.756;2023-06-14T05:10:22;26.77;50.69
75380;HTU21D;65641;44.714;37.756;2023-06-14T05:11:26;26.78;50.76
75380;HTU21D;65641;44.714;37.756;2023-06-14T05:12:30;26.80;50.73
75380;HTU21D;65641;44.714;37.756;2023-06-14T05:13:33;26.82;50.75
75380;HTU21D;65641;44.714;37.756;2023-06-14T05:14:38;26.80;50.84
75380;HTU21D;65641;44.714;37.756;2023-06-14T05:15:42;26.79;50.84
75380;HTU21D;65641;44.714;37.756;2023-06-14T05:16:47;26.76;51.08
75380;HTU21D;65641;44.714;37.756;2023-06-14T05:17:53;26.73;51.00
75380;HTU21D;65641;44.714;37.756;2023-06-14T05:18:59;26.69;51.26
75380;HTU21D;65641;44.714;37.756;2023-06-14T05:20:02;26.68;51.37
75380;HTU21D;65641;44.714;37.756;2023-06-14T05:21:08;26.67;51.39
75380;HTU21D;65641;44.714;37.756;2023-06-14T05:22:11;26.64;51.47
75380;HTU21D;65641;44.714;37.756;2023-06-14T05:23:15;26.64;51.57
75380;HTU21D;65641;44.714;37.756;2023-06-14T05:24:18;26.63;51.59
75380;HTU21D;65641;44.714;37.756;2023-06-14T05:25:22;26.66;51.56
75380;HTU21D;65641;44.714;37.756;2023-06-14T05:26:26;26.68;51.66
75380;HTU21D;65641;44.714;37.756;2023-06-14T05:27:33;26.70;51.51
75380;HTU21D;65641;44.714;37.756;2023-06-14T05:28:38;26.73;51.47
75380;HTU21D;65641;44.714;37.756;2023-06-14T05:29:42;26.77;51.50
75380;HTU21D;65641;44.714;37.756;2023-06-14T05:30:45;26.76;51.55
75380;HTU21D;65641;44.714;37.756;2023-06-14T05:31:49;26.76;51.50
75380;HTU21D;65641;44.714;37.756;2023-06-14T05:32:53;26.76;51.56
75380;HTU21D;65641;44.714;37.756;2023-06-14T05:33:56;26.75;51.62
75380;HTU21D;65641;44.714;37.756;2023-06-14T05:35:00;26.72;51.72
75380;HTU21D;65641;44.714;37.756;2023-06-14T05:36:05;26.68;51.75
75380;HTU21D;65641;44.714;37.756;2023-06-14T05:37:10;26.66;51.90
75380;HTU21D;65641;44.714;37.756;2023-06-14T05:38:14;26.64;51.97
75380;HTU21D;65641;44.714;37.756;2023-06-14T05:39:17;26.61;52.16
75380;HTU21D;65641;44.714;37.756;2023-06-14T05:40:21;26.60;52.14
75380;HTU21D;65641;44.714;37.756;2023-06-14T05:41:25;26.58;52.20
75380;HTU21D;65641;44.714;37.756;2023-06-14T05:42:29;26.56;52.24
75380;HTU21D;65641;44.714;37.756;2023-06-14T05:43:32;26.54;52.34
75380;HTU21D;65641;44.714;37.756;2023-06-14T05:44:36;26.54;52.41
75380;HTU21D;65641;44.714;37.756;2023-06-14T05:45:39;26.54;52.33
75380;HTU21D;65641;44.714;37.756;2023-06-14T05:46:43;26.52;52.37
75380;HTU21D;65641;44.714;37.756;2023-06-14T05:47:47;26.50;52.51
75380;HTU21D;65641;44.714;37.756;2023-06-14T05:48:51;26.49;52.48
75380;HTU21D;65641;44.714;37.756;2023-06-14T05:49:55;26.50;52.55
75380;HTU21D;65641;44.714;37.756;2023-06-14T05:50:58;26.50;52.56
75380;HTU21D;65641;44.714;37.756;2023-06-14T05:52:02;26.49;52.62
75380;HTU21D;65641;44.714;37.756;2023-06-14T05:53:05;26.50;52.60
75380;HTU21D;65641;44.714;37.756;2023-06-14T05:54:09;26.52;52.52
75380;HTU21D;65641;44.714;37.756;2023-06-14T05:55:13;26.54;52.58
75380;HTU21D;65641;44.714;37.756;2023-06-14T05:56:17;26.57;52.46
75380;HTU21D;65641;44.714;37.756;2023-06-14T05:57:21;26.60;52.36
75380;HTU21D;65641;44.714;37.756;2023-06-14T05:58:24;26.61;52.32
75380;HTU21D;65641;44.714;37.756;2023-06-14T05:59:28;26.63;52.38
75380;HTU21D;65641;44.714;37.756;2023-06-14T06:00:32;26.65;52.41
75380;HTU21D;65641;44.714;37.756;2023-06-14T06:01:36;26.67;52.33
75380;HTU21D;65641;44.714;37.756;2023-06-14T06:02:43;26.67;52.30
75380;HTU21D;65641;44.714;37.756;2023-06-14T06:03:47;26.70;52.33
75380;HTU21D;65641;44.714;37.756;2023-06-14T06:04:51;26.70;52.30
75380;HTU21D;65641;44.714;37.756;2023-06-14T06:05:54;26.73;52.27
75380;HTU21D;65641;44.714;37.756;2023-06-14T06:06:58;26.75;52.23
75380;HTU21D;65641;44.714;37.756;2023-06-14T06:08:01;26.73;52.24
75380;HTU21D;65641;44.714;37.756;2023-06-14T06:09:05;26.73;52.25
75380;HTU21D;65641;44.714;37.756;2023-06-14T06:10:10;26.77;52.20
75380;HTU21D;65641;44.714;37.756;2023-06-14T06:11:14;26.78;52.18
75380;HTU21D;65641;44.714;37.756;2023-06-14T06:12:17;26.78;52.14
75380;HTU21D;65641;44.714;37.756;2023-06-14T06:13:21;26.79;52.15
75380;HTU21D;65641;44.714;37.756;2023-06-14T06:14:24;26.78;52.14
75380;HTU21D;65641;44.714;37.756;2023-06-14T06:15:28;26.77;52.24
75380;HTU21D;65641;44.714;37.756;2023-06-14T06:16:32;26.78;52.20
75380;HTU21D;65641;44.714;37.756;2023-06-14T06:17:36;26.79;52.23
75380;HTU21D;65641;44.714;37.756;2023-06-14T06:18:57;26.78;52.19
75380;HTU21D;65641;44.714;37.756;2023-06-14T06:20:00;26.80;52.13
75380;HTU21D;65641;44.714;37.756;2023-06-14T06:21:05;26.79;52.19
75380;HTU21D;65641;44.714;37.756;2023-06-14T06:22:09;26.80;52.18
75380;HTU21D;65641;44.714;37.756;2023-06-14T06:23:13;26.81;52.15
75380;HTU21D;65641;44.714;37.756;2023-06-14T06:24:16;26.82;52.16
75380;HTU21D;65641;44.714;37.756;2023-06-14T06:25:20;26.83;52.10
75380;HTU21D;65641;44.714;37.756;2023-06-14T06:26:25;26.84;52.06
75380;HTU21D;65641;44.714;37.756;2023-06-14T06:27:29;26.84;52.11
75380;HTU21D;65641;44.714;37.756;2023-06-14T06:28:32;26.83;52.06
75380;HTU21D;65641;44.714;37.756;2023-06-14T06:29:36;26.82;52.23
75380;HTU21D;65641;44.714;37.756;2023-06-14T06:30:40;26.85;52.25
75380;HTU21D;65641;44.714;37.756;2023-06-14T06:31:43;26.86;52.21
75380;HTU21D;65641;44.714;37.756;2023-06-14T06:32:48;26.87;52.11
75380;HTU21D;65641;44.714;37.756;2023-06-14T06:33:52;26.86;52.15
75380;HTU21D;65641;44.714;37.756;2023-06-14T06:35:02;26.89;52.17
75380;HTU21D;65641;44.714;37.756;2023-06-14T06:36:09;26.87;52.11
75380;HTU21D;65641;44.714;37.756;2023-06-14T06:37:14;26.91;52.10
75380;HTU21D;65641;44.714;37.756;2023-06-14T06:38:18;26.91;52.08
75380;HTU21D;65641;44.714;37.756;2023-06-14T06:39:22;26.93;52.12
75380;HTU21D;65641;44.714;37.756;2023-06-14T06:40:25;26.94;52.01
75380;HTU21D;65641;44.714;37.756;2023-06-14T06:41:28;26.96;52.09